createdAt,value
2022-09-17T00:00:01.376Z,97297.13
2022-09-17T00:02:13.108Z,97300.88
2022-09-17T00:04:21.591Z,97297.56
2022-09-17T00:06:30.622Z,97299.03
2022-09-17T00:08:40.682Z,97298.94
2022-09-17T00:10:48.756Z,97292.03
2022-09-17T00:12:56.654Z,97294.16
2022-09-17T00:15:05.267Z,97300.94
2022-09-17T00:17:16.316Z,97297.53
2022-09-17T00:19:25.946Z,97292.22
2022-09-17T00:21:34.121Z,97295.56
2022-09-17T00:23:42.191Z,97305.66
2022-09-17T00:25:52.265Z,97299.03
2022-09-17T00:28:00.357Z,97304.03
2022-09-17T00:30:09.919Z,97305.66
2022-09-17T00:32:21.066Z,97309.34
2022-09-17T00:34:29.156Z,97323.75
2022-09-17T00:36:38.632Z,97325.03
2022-09-17T00:38:46.608Z,97310.09
2022-09-17T00:40:55.322Z,97323.88
2022-09-17T00:43:03.068Z,97324.94
2022-09-17T00:45:13.186Z,97322.91
2022-09-17T00:47:29.409Z,97318.91
2022-09-17T00:49:37.485Z,97322.06
2022-09-17T00:52:00.419Z,97328.34
2022-09-17T00:54:14.994Z,97311.56
2022-09-17T00:56:28.398Z,97316.22
2022-09-17T00:58:41.292Z,97325.88
2022-09-17T01:00:49.873Z,97319.00
2022-09-17T01:03:01.263Z,97326.00
2022-09-17T01:05:13.004Z,97323.22
2022-09-17T01:07:37.915Z,97328.69
2022-09-17T01:09:56.590Z,97332.06
2022-09-17T01:12:19.399Z,97331.09
2022-09-17T01:14:47.718Z,97318.22
2022-09-17T01:17:03.936Z,97316.41
2022-09-17T01:19:44.674Z,97320.63
2022-09-17T01:22:03.928Z,97320.19
2022-09-17T01:24:56.316Z,97318.91
2022-09-17T01:27:25.486Z,97327.78
2022-09-17T01:29:52.764Z,97325.25
2022-09-17T01:32:12.822Z,97326.91
2022-09-17T01:34:27.885Z,97326.25
2022-09-17T01:36:53.086Z,97333.44
2022-09-17T01:39:10.099Z,97321.50
2022-09-17T01:41:31.214Z,97326.06
2022-09-17T01:43:49.543Z,97329.16
2022-09-17T01:46:03.146Z,97325.78
2022-09-17T01:48:20.029Z,97328.84
2022-09-17T01:50:33.808Z,97332.53
2022-09-17T01:52:44.965Z,97328.53
2022-09-17T01:55:02.555Z,97340.09
2022-09-17T01:57:16.491Z,97333.63
2022-09-17T01:59:28.194Z,97333.34
2022-09-17T02:01:38.837Z,97333.59
2022-09-17T02:03:57.208Z,97337.81
2022-09-17T02:06:09.588Z,97342.41
2022-09-17T02:08:22.039Z,97348.56
2022-09-17T02:10:34.628Z,97347.72
2022-09-17T02:12:48.124Z,97347.00
2022-09-17T02:14:59.613Z,97348.25
2022-09-17T02:17:13.774Z,97350.59
2022-09-17T02:19:29.088Z,97349.34
2022-09-17T02:21:47.183Z,97358.13
2022-09-17T02:24:09.013Z,97350.06
2022-09-17T02:26:21.089Z,97354.88
2022-09-17T02:28:37.377Z,97347.84
2022-09-17T02:30:45.435Z,97350.47
2022-09-17T02:32:54.518Z,97352.25
2022-09-17T02:35:07.566Z,97338.31
2022-09-17T02:37:15.600Z,97341.25
2022-09-17T02:39:23.435Z,97341.25
2022-09-17T02:41:43.386Z,97338.59
2022-09-17T02:44:02.037Z,97339.63
2022-09-17T02:46:23.719Z,97333.34
2022-09-17T02:48:50.624Z,97337.81
2022-09-17T02:51:24.641Z,97334.44
2022-09-17T02:53:43.213Z,97338.06
2022-09-17T02:55:59.558Z,97334.09
2022-09-17T02:58:22.844Z,97335.59
2022-09-17T03:00:31.337Z,97324.69
2022-09-17T03:02:45.704Z,97323.31
2022-09-17T03:04:55.415Z,97328.25
2022-09-17T03:07:09.277Z,97321.88
2022-09-17T03:09:18.816Z,97326.03
2022-09-17T03:11:29.687Z,97334.84
2022-09-17T03:13:38.911Z,97334.19
2022-09-17T03:15:48.503Z,97330.25
2022-09-17T03:17:56.834Z,97326.94
2022-09-17T03:20:04.978Z,97336.66
2022-09-17T03:22:15.526Z,97331.34
2022-09-17T03:24:23.878Z,97333.56
2022-09-17T03:26:32.245Z,97328.88
2022-09-17T03:28:42.782Z,97330.78
2022-09-17T03:30:50.928Z,97329.22
2022-09-17T03:32:58.625Z,97327.41
2022-09-17T03:35:06.902Z,97330.69
2022-09-17T03:37:17.323Z,97331.59
2022-09-17T03:39:25.384Z,97339.84
2022-09-17T03:41:33.692Z,97339.38
2022-09-17T03:43:42.301Z,97339.75
2022-09-17T03:45:50.501Z,97351.00
2022-09-17T03:47:58.610Z,97339.94
2022-09-17T03:50:07.443Z,97343.03
2022-09-17T03:52:18.343Z,97344.34
2022-09-17T03:54:26.914Z,97337.34
2022-09-17T03:56:34.809Z,97355.78
2022-09-17T03:58:43.013Z,97345.19
2022-09-17T04:00:57.899Z,97352.19
2022-09-17T04:03:05.863Z,97344.78
2022-09-17T04:05:13.897Z,97351.16
2022-09-17T04:07:24.342Z,97348.28
2022-09-17T04:09:33.392Z,97356.16
2022-09-17T04:11:43.390Z,97356.94
2022-09-17T04:13:51.538Z,97349.19
2022-09-17T04:15:59.670Z,97352.88
2022-09-17T04:18:09.454Z,97356.59
2022-09-17T04:20:17.352Z,97363.56
2022-09-17T04:22:28.871Z,97352.78
2022-09-17T04:24:36.754Z,97356.28
2022-09-17T04:26:44.464Z,97352.19
2022-09-17T04:28:52.636Z,97360.53
2022-09-17T04:31:00.759Z,97361.50
2022-09-17T04:33:09.177Z,97365.75
2022-09-17T04:35:17.719Z,97361.03
2022-09-17T04:37:28.287Z,97363.47
2022-09-17T04:39:38.148Z,97375.00
2022-09-17T04:41:46.069Z,97379.38
2022-09-17T04:43:53.926Z,97385.34
2022-09-17T04:46:01.757Z,97388.53
2022-09-17T04:48:10.200Z,97396.03
2022-09-17T04:50:18.076Z,97398.09
2022-09-17T04:52:30.966Z,97402.81
2022-09-17T04:54:39.344Z,97407.06
2022-09-17T04:56:47.103Z,97402.59
2022-09-17T04:58:55.270Z,97401.97
2022-09-17T05:01:03.424Z,97395.72
2022-09-17T05:03:12.125Z,97414.72
2022-09-17T05:05:21.465Z,97413.00
2022-09-17T05:07:32.402Z,97416.56
2022-09-17T05:09:40.117Z,97420.28
2022-09-17T05:11:48.197Z,97421.13
2022-09-17T05:13:56.053Z,97421.97
2022-09-17T05:16:05.094Z,97424.16
2022-09-17T05:18:13.399Z,97417.34
2022-09-17T05:20:21.295Z,97421.88
2022-09-17T05:22:32.117Z,97427.84
2022-09-17T05:24:40.295Z,97422.13
2022-09-17T05:26:48.458Z,97425.84
2022-09-17T05:28:56.587Z,97417.53
2022-09-17T05:31:05.542Z,97426.16
2022-09-17T05:33:13.764Z,97419.88
2022-09-17T05:35:21.834Z,97422.91
2022-09-17T05:37:33.108Z,97430.66
2022-09-17T05:39:41.615Z,97431.97
2022-09-17T05:41:49.622Z,97432.50
2022-09-17T05:43:58.307Z,97434.09
2022-09-17T05:46:07.253Z,97432.22
2022-09-17T05:48:17.127Z,97421.19
2022-09-17T05:50:25.385Z,97429.16
2022-09-17T05:52:35.875Z,97437.47
2022-09-17T05:54:43.878Z,97435.50
2022-09-17T05:56:55.685Z,97440.38
2022-09-17T05:59:04.001Z,97441.03
2022-09-17T06:01:16.198Z,97435.19
2022-09-17T06:03:25.832Z,97441.56
2022-09-17T06:05:33.665Z,97447.00
2022-09-17T06:07:44.268Z,97449.34
2022-09-17T06:09:51.951Z,97448.59
2022-09-17T06:11:59.895Z,97458.91
2022-09-17T06:14:07.783Z,97456.47
2022-09-17T06:16:15.855Z,97463.34
2022-09-17T06:18:24.270Z,97462.38
2022-09-17T06:20:32.185Z,97464.44
2022-09-17T06:22:40.134Z,97464.09
2022-09-17T06:24:51.038Z,97459.84
2022-09-17T06:26:59.821Z,97463.88
2022-09-17T06:29:07.659Z,97466.25
2022-09-17T06:31:16.885Z,97465.81
2022-09-17T06:33:26.927Z,97460.94
2022-09-17T06:35:35.234Z,97462.00
2022-09-17T06:37:43.341Z,97469.25
2022-09-17T06:39:54.681Z,97470.31
2022-09-17T06:42:03.237Z,97473.38
2022-09-17T06:44:13.692Z,97474.69
2022-09-17T06:46:21.750Z,97472.00
2022-09-17T06:48:31.302Z,97468.78
2022-09-17T06:50:42.672Z,97480.41
2022-09-17T06:52:52.084Z,97477.22
2022-09-17T06:55:04.149Z,97479.44
2022-09-17T06:57:21.300Z,97471.34
2022-09-17T06:59:29.860Z,97483.25
2022-09-17T07:01:38.897Z,97478.28
2022-09-17T07:03:48.976Z,97483.31
2022-09-17T07:05:57.990Z,97482.53
2022-09-17T07:08:13.748Z,97478.91
2022-09-17T07:10:26.070Z,97482.31
2022-09-17T07:12:49.819Z,97484.31
2022-09-17T07:15:00.687Z,97486.25
2022-09-17T07:17:09.169Z,97487.13
2022-09-17T07:19:29.728Z,97488.63
2022-09-17T07:21:37.586Z,97492.84
2022-09-17T07:23:45.906Z,97496.88
2022-09-17T07:26:00.989Z,97496.88
2022-09-17T07:28:08.968Z,97494.84
2022-09-17T07:30:16.894Z,97498.84
2022-09-17T07:32:26.144Z,97502.56
2022-09-17T07:34:34.126Z,97514.03
2022-09-17T07:36:42.465Z,97510.72
2022-09-17T07:38:50.619Z,97505.28
2022-09-17T07:41:06.697Z,97514.53
2022-09-17T07:43:15.377Z,97514.09
2022-09-17T07:45:25.588Z,97505.78
2022-09-17T07:47:34.047Z,97507.69
2022-09-17T07:49:42.081Z,97507.84
2022-09-17T07:51:49.903Z,97510.34
2022-09-17T07:53:59.137Z,97512.84
2022-09-17T07:56:11.944Z,97513.94
2022-09-17T07:58:20.632Z,97514.94
2022-09-17T08:00:28.444Z,97519.78
2022-09-17T08:02:36.787Z,97525.31
2022-09-17T08:04:46.581Z,97541.28
2022-09-17T08:06:54.725Z,97540.13
2022-09-17T08:09:02.695Z,97533.91
2022-09-17T08:11:32.396Z,97532.94
2022-09-17T08:13:45.238Z,97536.94
2022-09-17T08:15:52.963Z,97533.00
2022-09-17T08:18:01.115Z,97533.75
2022-09-17T08:20:10.246Z,97540.16
2022-09-17T08:22:18.478Z,97545.38
2022-09-17T08:24:26.256Z,97542.13
2022-09-17T08:26:36.702Z,97534.31
2022-09-17T08:28:47.980Z,97537.44
2022-09-17T08:30:56.538Z,97540.00
2022-09-17T08:33:04.693Z,97535.41
2022-09-17T08:35:13.125Z,97538.06
2022-09-17T08:37:20.838Z,97538.47
2022-09-17T08:39:28.720Z,97539.03
2022-09-17T08:41:51.757Z,97548.72
2022-09-17T08:44:14.312Z,97538.69
2022-09-17T08:46:22.764Z,97546.94
2022-09-17T08:48:39.783Z,97545.38
2022-09-17T08:50:48.196Z,97553.31
2022-09-17T08:53:11.598Z,97555.91
2022-09-17T08:55:31.539Z,97562.66
2022-09-17T08:57:50.556Z,97556.94
2022-09-17T09:00:05.220Z,97563.28
2022-09-17T09:02:28.062Z,97562.22
2022-09-17T09:04:55.709Z,97553.97
2022-09-17T09:07:06.782Z,97555.50
2022-09-17T09:09:18.497Z,97554.16
2022-09-17T09:11:31.122Z,97555.72
2022-09-17T09:13:45.320Z,97551.94
2022-09-17T09:15:59.919Z,97556.34
2022-09-17T09:18:20.686Z,97553.06
2022-09-17T09:20:34.552Z,97547.03
2022-09-17T09:22:52.046Z,97537.22
2022-09-17T09:25:08.642Z,97549.22
2022-09-17T09:27:21.639Z,97558.47
2022-09-17T09:29:41.287Z,97546.78
2022-09-17T09:32:16.812Z,97550.78
2022-09-17T09:34:25.896Z,97551.69
2022-09-17T09:36:37.204Z,97545.53
2022-09-17T09:38:51.181Z,97534.91
2022-09-17T09:41:07.881Z,97548.50
2022-09-17T09:43:22.155Z,97543.13
2022-09-17T09:45:45.338Z,97542.81
2022-09-17T09:48:06.321Z,97544.56
2022-09-17T09:50:42.927Z,97540.03
2022-09-17T09:53:09.849Z,97543.72
2022-09-17T09:55:32.799Z,97544.69
2022-09-17T09:57:46.494Z,97546.84
2022-09-17T09:59:54.662Z,97556.59
2022-09-17T10:02:05.452Z,97557.97
2022-09-17T10:04:20.564Z,97551.31
2022-09-17T10:06:32.892Z,97552.66
2022-09-17T10:08:43.256Z,97546.81
2022-09-17T10:11:03.827Z,97545.56
2022-09-17T10:13:17.875Z,97540.00
2022-09-17T10:15:30.781Z,97548.47
2022-09-17T10:17:41.739Z,97547.19
2022-09-17T10:20:01.012Z,97551.78
2022-09-17T10:22:23.607Z,97546.81
2022-09-17T10:24:35.512Z,97548.25
2022-09-17T10:26:43.383Z,97551.66
2022-09-17T10:28:54.767Z,97550.25
2022-09-17T10:31:08.591Z,97552.56
2022-09-17T10:33:26.106Z,97559.88
2022-09-17T10:35:34.992Z,97553.53
2022-09-17T10:37:47.521Z,97563.16
2022-09-17T10:39:56.805Z,97576.78
2022-09-17T10:42:06.201Z,97584.69
2022-09-17T10:44:21.196Z,97581.91
2022-09-17T10:46:34.151Z,97591.50
2022-09-17T10:48:47.815Z,97578.69
2022-09-17T10:50:58.623Z,97575.28
2022-09-17T10:53:10.440Z,97577.41
2022-09-17T10:55:29.432Z,97565.59
2022-09-17T10:57:50.813Z,97575.63
2022-09-17T11:00:15.920Z,97571.97
2022-09-17T11:02:59.171Z,97564.00
2022-09-17T11:05:30.881Z,97560.72
2022-09-17T11:07:49.244Z,97553.97
2022-09-17T11:10:06.012Z,97546.63
2022-09-17T11:12:31.975Z,97542.81
2022-09-17T11:14:52.771Z,97550.41
2022-09-17T11:17:09.681Z,97544.41
2022-09-17T11:19:28.416Z,97542.56
2022-09-17T11:21:45.550Z,97561.81
2022-09-17T11:24:48.957Z,97552.59
2022-09-17T11:27:07.987Z,97552.94
2022-09-17T11:29:43.298Z,97569.00
2022-09-17T11:31:59.543Z,97564.63
2022-09-17T11:34:32.728Z,97557.47
2022-09-17T11:36:52.367Z,97554.13
2022-09-17T11:39:07.578Z,97554.03
2022-09-17T11:41:20.608Z,97545.00
2022-09-17T11:43:31.485Z,97532.25
2022-09-17T11:45:43.251Z,97538.63
2022-09-17T11:47:57.708Z,97544.16
2022-09-17T11:50:18.818Z,97549.97
2022-09-17T11:52:33.325Z,97545.41
2022-09-17T11:54:47.233Z,97542.41
2022-09-17T11:56:59.255Z,97531.38
2022-09-17T11:59:14.185Z,97532.50
2022-09-17T12:01:29.924Z,97538.47
2022-09-17T12:03:44.394Z,97528.44
2022-09-17T12:05:57.314Z,97542.44
2022-09-17T12:08:16.874Z,97555.97
2022-09-17T12:10:44.544Z,97550.66
2022-09-17T12:13:00.121Z,97523.78
2022-09-17T12:15:18.378Z,97532.72
2022-09-17T12:17:29.747Z,97525.69
2022-09-17T12:19:42.878Z,97516.25
2022-09-17T12:21:54.163Z,97505.66
2022-09-17T12:24:13.010Z,97502.69
2022-09-17T12:26:34.191Z,97490.91
2022-09-17T12:28:48.777Z,97502.13
2022-09-17T12:31:04.325Z,97501.59
2022-09-17T12:33:24.320Z,97479.09
2022-09-17T12:36:03.911Z,97477.28
2022-09-17T12:38:29.468Z,97471.00
2022-09-17T12:40:49.359Z,97473.84
2022-09-17T12:43:20.825Z,97489.88
2022-09-17T12:45:49.925Z,97481.47
2022-09-17T12:48:23.123Z,97477.94
2022-09-17T12:50:44.071Z,97479.56
2022-09-17T12:53:08.958Z,97476.75
2022-09-17T12:55:42.543Z,97469.91
2022-09-17T12:58:02.038Z,97462.00
2022-09-17T13:00:14.577Z,97472.88
2022-09-17T13:02:28.081Z,97484.88
2022-09-17T13:05:01.790Z,97485.16
2022-09-17T13:07:37.283Z,97488.97
2022-09-17T13:10:06.144Z,97492.00
2022-09-17T13:12:23.985Z,97500.28
2022-09-17T13:14:45.693Z,97497.41
2022-09-17T13:16:59.428Z,97510.88
2022-09-17T13:19:17.100Z,97517.06
2022-09-17T13:21:32.750Z,97522.94
2022-09-17T13:23:44.940Z,97531.47
2022-09-17T13:25:55.252Z,97540.72
2022-09-17T13:28:14.355Z,97539.34
2022-09-17T13:30:23.181Z,97530.28
2022-09-17T13:32:50.872Z,97529.44
2022-09-17T13:34:58.894Z,97524.72
2022-09-17T13:37:08.416Z,97527.03
2022-09-17T13:39:40.212Z,97526.41
2022-09-17T13:41:48.022Z,97525.78
2022-09-17T13:43:59.183Z,97536.13
2022-09-17T13:46:20.531Z,97527.28
2022-09-17T13:48:31.726Z,97520.72
2022-09-17T13:50:42.147Z,97527.03
2022-09-17T13:52:53.791Z,97517.97
2022-09-17T13:55:02.502Z,97520.63
2022-09-17T13:57:14.641Z,97507.06
2022-09-17T13:59:30.271Z,97516.16
2022-09-17T14:02:01.053Z,97507.94
2022-09-17T14:04:09.006Z,97510.88
2022-09-17T14:06:46.974Z,97516.28
2022-09-17T14:08:58.037Z,97518.25
2022-09-17T14:11:40.535Z,97514.75
2022-09-17T14:13:51.904Z,97516.22
2022-09-17T14:16:07.055Z,97516.09
2022-09-17T14:18:37.579Z,97516.09
2022-09-17T14:20:45.668Z,97520.34
2022-09-17T14:22:59.746Z,97511.09
2022-09-17T14:25:20.074Z,97521.03
2022-09-17T14:27:44.520Z,97517.16
2022-09-17T14:30:19.617Z,97514.69
2022-09-17T14:32:33.696Z,97529.28
2022-09-17T14:34:41.526Z,97514.84
2022-09-17T14:36:50.246Z,97514.22
2022-09-17T14:38:59.730Z,97521.53
2022-09-17T14:41:10.485Z,97513.06
2022-09-17T14:43:24.412Z,97516.94
2022-09-17T14:45:40.275Z,97514.50
2022-09-17T14:47:48.292Z,97509.91
2022-09-17T14:49:57.233Z,97514.25
2022-09-17T14:52:22.701Z,97510.88
2022-09-17T14:54:36.329Z,97513.63
2022-09-17T14:56:51.273Z,97505.03
2022-09-17T14:58:59.335Z,97504.78
2022-09-17T15:01:26.168Z,97507.41
2022-09-17T15:03:34.898Z,97505.97
2022-09-17T15:05:43.397Z,97502.34
2022-09-17T15:07:54.816Z,97505.41
2022-09-17T15:10:16.621Z,97500.03
2022-09-17T15:12:31.228Z,97492.63
2022-09-17T15:14:41.804Z,97500.03
2022-09-17T15:16:56.519Z,97495.56
2022-09-17T15:19:06.048Z,97494.25
2022-09-17T15:21:30.470Z,97491.31
2022-09-17T15:23:39.981Z,97490.97
2022-09-17T15:25:51.006Z,97486.22
2022-09-17T15:28:01.874Z,97490.38
2022-09-17T15:30:16.381Z,97490.72
2022-09-17T15:32:27.146Z,97487.53
2022-09-17T15:34:35.171Z,97489.72
2022-09-17T15:36:42.894Z,97485.09
2022-09-17T15:38:51.760Z,97492.88
2022-09-17T15:41:26.708Z,97493.97
2022-09-17T15:43:37.928Z,97496.28
2022-09-17T15:45:46.548Z,97494.59
2022-09-17T15:47:58.766Z,97492.06
2022-09-17T15:50:18.406Z,97488.19
2022-09-17T15:52:33.035Z,97493.97
2022-09-17T15:54:44.180Z,97493.75
2022-09-17T15:56:59.782Z,97497.53
2022-09-17T15:59:23.344Z,97502.59
2022-09-17T16:01:56.823Z,97505.66
2022-09-17T16:04:23.841Z,97491.56
2022-09-17T16:06:41.720Z,97495.72
2022-09-17T16:08:51.545Z,97494.25
2022-09-17T16:10:59.384Z,97495.94
2022-09-17T16:13:07.173Z,97498.94
2022-09-17T16:15:17.583Z,97497.22
2022-09-17T16:17:44.135Z,97498.06
2022-09-17T16:19:54.965Z,97494.81
2022-09-17T16:22:02.929Z,97494.38
2022-09-17T16:24:10.716Z,97499.34
2022-09-17T16:26:21.707Z,97492.31
2022-09-17T16:28:29.585Z,97505.63
2022-09-17T16:30:37.486Z,97507.09
2022-09-17T16:32:45.961Z,97515.09
2022-09-17T16:34:56.295Z,97512.75
2022-09-17T16:37:04.698Z,97514.41
2022-09-17T16:39:14.228Z,97516.16
2022-09-17T16:41:22.033Z,97512.56
2022-09-17T16:43:30.102Z,97519.09
2022-09-17T16:45:38.690Z,97507.81
2022-09-17T16:47:47.236Z,97510.84
2022-09-17T16:49:57.938Z,97510.38
2022-09-17T16:52:05.695Z,97504.47
2022-09-17T16:54:13.697Z,97512.59
2022-09-17T16:56:21.709Z,97517.19
2022-09-17T16:58:29.989Z,97515.81
2022-09-17T17:00:37.912Z,97509.50
2022-09-17T17:02:47.328Z,97504.66
2022-09-17T17:04:58.001Z,97512.66
2022-09-17T17:07:05.759Z,97499.75
2022-09-17T17:09:15.725Z,97506.97
2022-09-17T17:11:25.513Z,97507.16
2022-09-17T17:13:33.272Z,97514.63
2022-09-17T17:15:43.558Z,97516.69
2022-09-17T17:17:51.748Z,97512.44
2022-09-17T17:20:03.007Z,97507.31
2022-09-17T17:22:10.724Z,97511.31
2022-09-17T17:24:19.107Z,97519.56
2022-09-17T17:26:26.887Z,97519.16
2022-09-17T17:28:35.732Z,97524.88
2022-09-17T17:30:43.764Z,97533.41
2022-09-17T17:32:53.796Z,97528.63
2022-09-17T17:35:04.317Z,97533.16
2022-09-17T17:37:14.466Z,97523.41
2022-09-17T17:39:23.284Z,97534.06
2022-09-17T17:41:31.183Z,97523.94
2022-09-17T17:43:40.224Z,97519.91
2022-09-17T17:45:48.660Z,97517.91
2022-09-17T17:47:56.389Z,97517.44
2022-09-17T17:50:08.745Z,97516.25
2022-09-17T17:52:16.852Z,97523.38
2022-09-17T17:54:27.303Z,97550.09
2022-09-17T17:56:35.201Z,97562.88
2022-09-17T17:58:46.609Z,97563.41
2022-09-17T18:00:55.108Z,97570.53
2022-09-17T18:03:05.126Z,97567.34
2022-09-17T18:05:15.631Z,97552.50
2022-09-17T18:07:23.709Z,97553.97
2022-09-17T18:09:31.751Z,97548.97
2022-09-17T18:11:42.376Z,97551.72
2022-09-17T18:13:54.775Z,97549.38
2022-09-17T18:16:04.156Z,97546.63
2022-09-17T18:18:12.034Z,97532.91
2022-09-17T18:20:23.274Z,97546.06
2022-09-17T18:22:31.443Z,97545.41
2022-09-17T18:24:39.497Z,97546.25
2022-09-17T18:26:47.674Z,97550.28
2022-09-17T18:28:56.306Z,97545.59
2022-09-17T18:31:08.038Z,97557.41
2022-09-17T18:33:16.244Z,97551.97
2022-09-17T18:35:27.431Z,97556.00
2022-09-17T18:37:35.553Z,97559.38
2022-09-17T18:39:57.957Z,97558.09
2022-09-17T18:42:06.802Z,97558.00
2022-09-17T18:44:14.913Z,97565.59
2022-09-17T18:46:23.410Z,97558.88
2022-09-17T18:48:36.148Z,97556.28
2022-09-17T18:50:57.434Z,97558.19
2022-09-17T18:53:07.684Z,97557.97
2022-09-17T18:55:15.599Z,97546.31
2022-09-17T18:57:23.697Z,97554.09
2022-09-17T18:59:31.862Z,97564.16
2022-09-17T19:01:39.958Z,97566.41
2022-09-17T19:03:48.344Z,97563.56
2022-09-17T19:06:02.384Z,97567.06
2022-09-17T19:08:10.620Z,97571.13
2022-09-17T19:10:18.892Z,97578.25
2022-09-17T19:12:27.142Z,97590.75
2022-09-17T19:14:35.183Z,97598.44
2022-09-17T19:16:43.472Z,97599.50
2022-09-17T19:18:53.176Z,97611.91
2022-09-17T19:21:17.508Z,97612.59
2022-09-17T19:23:25.491Z,97645.97
2022-09-17T19:25:33.706Z,97645.16
2022-09-17T19:27:41.952Z,97667.59
2022-09-17T19:29:49.945Z,97662.19
2022-09-17T19:31:58.008Z,97650.94
2022-09-17T19:34:06.174Z,97648.66
2022-09-17T19:36:18.432Z,97656.44
2022-09-17T19:38:28.740Z,97667.09
2022-09-17T19:40:38.051Z,97670.56
2022-09-17T19:42:46.678Z,97664.81
2022-09-17T19:44:54.456Z,97659.13
2022-09-17T19:47:02.492Z,97651.69
2022-09-17T19:49:11.086Z,97648.09
2022-09-17T19:51:23.754Z,97648.41
2022-09-17T19:53:32.006Z,97659.81
2022-09-17T19:55:41.013Z,97660.91
2022-09-17T19:57:50.252Z,97665.34
2022-09-17T19:59:58.401Z,97661.09
2022-09-17T20:02:07.386Z,97673.75
2022-09-17T20:04:15.642Z,97674.13
2022-09-17T20:06:29.436Z,97682.34
2022-09-17T20:08:48.974Z,97678.84
2022-09-17T20:10:56.847Z,97676.50
2022-09-17T20:13:07.360Z,97684.91
2022-09-17T20:15:16.588Z,97685.59
2022-09-17T20:17:25.010Z,97692.69
2022-09-17T20:19:34.493Z,97691.16
2022-09-17T20:21:46.183Z,97692.09
2022-09-17T20:23:55.195Z,97694.16
2022-09-17T20:26:05.304Z,97705.72
2022-09-17T20:28:13.379Z,97700.38
2022-09-17T20:30:21.310Z,97703.00
2022-09-17T20:32:29.292Z,97712.31
2022-09-17T20:34:39.094Z,97711.25
2022-09-17T20:36:58.143Z,97708.28
2022-09-17T20:39:21.865Z,97694.84
2022-09-17T20:41:31.680Z,97704.69
2022-09-17T20:43:41.532Z,97701.84
2022-09-17T20:45:56.128Z,97692.38
2022-09-17T20:48:04.045Z,97701.97
2022-09-17T20:50:12.416Z,97693.84
2022-09-17T20:52:37.724Z,97700.66
2022-09-17T20:54:48.134Z,97712.81
2022-09-17T20:56:56.089Z,97699.31
2022-09-17T20:59:09.478Z,97697.34
2022-09-17T21:01:22.088Z,97713.75
2022-09-17T21:03:32.433Z,97701.19
2022-09-17T21:05:40.643Z,97700.59
2022-09-17T21:07:51.332Z,97696.53
2022-09-17T21:09:59.420Z,97697.06
2022-09-17T21:12:08.003Z,97697.31
2022-09-17T21:14:17.328Z,97703.25
2022-09-17T21:16:26.668Z,97717.19
2022-09-17T21:18:39.353Z,97752.44
2022-09-17T21:20:47.832Z,97746.00
2022-09-17T21:22:59.460Z,97750.09
2022-09-17T21:25:08.108Z,97751.16
2022-09-17T21:27:15.853Z,97749.59
2022-09-17T21:29:26.057Z,97726.72
2022-09-17T21:31:36.633Z,97737.09
2022-09-17T21:33:46.704Z,97736.44
2022-09-17T21:35:54.737Z,97745.84
2022-09-17T21:38:05.607Z,97741.81
2022-09-17T21:40:14.042Z,97743.22
2022-09-17T21:42:22.243Z,97744.66
2022-09-17T21:44:30.374Z,97742.31
2022-09-17T21:46:39.572Z,97740.09
2022-09-17T21:48:53.884Z,97734.41
2022-09-17T21:51:06.194Z,97742.13
2022-09-17T21:53:16.535Z,97735.53
2022-09-17T21:55:24.828Z,97747.69
2022-09-17T21:57:35.508Z,97737.94
2022-09-17T21:59:43.514Z,97733.47
2022-09-17T22:01:54.307Z,97735.09
2022-09-17T22:04:03.283Z,97741.25
2022-09-17T22:06:14.901Z,97735.38
2022-09-17T22:08:26.755Z,97742.59
2022-09-17T22:10:34.539Z,97740.41
2022-09-17T22:12:43.552Z,97749.81
2022-09-17T22:14:51.574Z,97741.16
2022-09-17T22:16:59.813Z,97741.16
2022-09-17T22:19:09.073Z,97746.16
2022-09-17T22:21:18.962Z,97747.78
2022-09-17T22:23:30.436Z,97749.19
2022-09-17T22:25:38.479Z,97738.25
2022-09-17T22:27:58.680Z,97748.84
2022-09-17T22:30:15.296Z,97734.44
2022-09-17T22:32:25.808Z,97733.88
2022-09-17T22:34:35.739Z,97738.38
2022-09-17T22:36:43.976Z,97736.91
2022-09-17T22:38:57.001Z,97727.84
2022-09-17T22:41:09.832Z,97727.22
2022-09-17T22:43:17.923Z,97731.00
2022-09-17T22:45:25.674Z,97730.16
2022-09-17T22:47:34.034Z,97724.00
2022-09-17T22:49:42.610Z,97730.25
2022-09-17T22:51:51.020Z,97720.91
2022-09-17T22:54:02.607Z,97725.16
2022-09-17T22:56:12.573Z,97726.13
2022-09-17T22:58:21.840Z,97726.22
2022-09-17T23:00:29.602Z,97716.19
2022-09-17T23:02:38.165Z,97726.28
2022-09-17T23:04:46.206Z,97717.72
2022-09-17T23:06:54.084Z,97718.53
2022-09-17T23:09:05.128Z,97721.22
2022-09-17T23:11:20.202Z,97724.56
2022-09-17T23:13:28.421Z,97722.88
2022-09-17T23:15:36.615Z,97719.47
2022-09-17T23:17:46.321Z,97727.44
2022-09-17T23:19:54.149Z,97733.59
2022-09-17T23:22:02.200Z,97732.31
2022-09-17T23:24:16.958Z,97741.59
2022-09-17T23:26:27.315Z,97740.91
2022-09-17T23:28:35.423Z,97739.31
2022-09-17T23:30:43.545Z,97738.19
2022-09-17T23:32:55.198Z,97738.56
2022-09-17T23:35:03.211Z,97740.34
2022-09-17T23:37:11.067Z,97736.50
2022-09-17T23:39:23.408Z,97745.31
2022-09-17T23:41:33.590Z,97742.56
2022-09-17T23:43:42.603Z,97739.78
2022-09-17T23:45:59.573Z,97740.75
2022-09-17T23:48:08.005Z,97737.34
2022-09-17T23:50:16.123Z,97736.41
2022-09-17T23:52:24.178Z,97732.88
2022-09-17T23:54:34.529Z,97742.28
2022-09-17T23:56:43.084Z,97742.94
2022-09-17T23:58:51.981Z,97738.94
